createdAt,value
2022-09-18T00:01:14.132Z,99383.34
2022-09-18T00:04:17.987Z,99379.66
2022-09-18T00:07:20.791Z,99373.97
2022-09-18T00:10:23.292Z,99372.03
2022-09-18T00:13:25.759Z,99373.84
2022-09-18T00:16:28.395Z,99382.28
2022-09-18T00:19:32.403Z,99383.00
2022-09-18T00:22:35.726Z,99380.47
2022-09-18T00:25:38.170Z,99381.19
2022-09-18T00:28:40.960Z,99381.09
2022-09-18T00:31:43.590Z,99375.78
2022-09-18T00:34:47.389Z,99378.88
2022-09-18T00:37:50.311Z,99389.69
2022-09-18T00:40:52.753Z,99382.53
2022-09-18T00:43:57.669Z,99393.44
2022-09-18T00:47:07.989Z,99388.16
2022-09-18T00:50:15.290Z,99380.03
2022-09-18T00:53:17.823Z,99384.59
2022-09-18T00:56:21.134Z,99398.31
2022-09-18T00:59:27.633Z,99393.25
2022-09-18T01:02:30.433Z,99392.00
2022-09-18T01:05:47.265Z,99390.03
2022-09-18T01:09:02.736Z,99405.63
2022-09-18T01:12:16.114Z,99400.66
2022-09-18T01:15:25.859Z,99403.34
2022-09-18T01:18:38.855Z,99402.81
2022-09-18T01:21:50.675Z,99419.41
2022-09-18T01:25:08.526Z,99410.91
2022-09-18T01:28:20.260Z,99414.22
2022-09-18T01:31:29.435Z,99409.44
2022-09-18T01:34:39.122Z,99408.06
2022-09-18T01:37:44.686Z,99413.75
2022-09-18T01:40:52.480Z,99425.47
2022-09-18T01:44:06.640Z,99420.94
2022-09-18T01:47:13.422Z,99426.63
2022-09-18T01:50:18.357Z,99434.94
2022-09-18T01:53:25.464Z,99434.09
2022-09-18T01:56:32.906Z,99433.56
2022-09-18T01:59:43.335Z,99433.69
2022-09-18T02:02:52.129Z,99432.84
2022-09-18T02:05:58.573Z,99436.19
2022-09-18T02:09:03.199Z,99429.34
2022-09-18T02:12:11.813Z,99436.19
2022-09-18T02:15:16.833Z,99434.31
2022-09-18T02:18:25.177Z,99427.81
2022-09-18T02:21:31.151Z,99429.06
2022-09-18T02:24:37.054Z,99426.31
2022-09-18T02:27:41.170Z,99426.53
2022-09-18T02:30:45.226Z,99429.25
2022-09-18T02:33:47.783Z,99426.41
2022-09-18T02:37:08.872Z,99419.69
2022-09-18T02:40:22.778Z,99421.16
2022-09-18T02:43:37.629Z,99420.19
2022-09-18T02:46:49.421Z,99416.81
2022-09-18T02:50:07.042Z,99411.53
2022-09-18T02:53:14.032Z,99422.09
2022-09-18T02:56:24.226Z,99411.97
2022-09-18T02:59:32.086Z,99413.38
2022-09-18T03:02:38.398Z,99415.09
2022-09-18T03:05:40.914Z,99422.00
2022-09-18T03:08:43.366Z,99433.56
2022-09-18T03:11:46.233Z,99431.88
2022-09-18T03:14:48.695Z,99434.59
2022-09-18T03:17:52.518Z,99438.41
2022-09-18T03:20:54.989Z,99453.41
2022-09-18T03:23:57.805Z,99452.75
2022-09-18T03:27:00.270Z,99447.38
2022-09-18T03:30:02.802Z,99464.06
2022-09-18T03:33:06.583Z,99456.47
2022-09-18T03:36:09.333Z,99457.19
2022-09-18T03:39:11.864Z,99455.81
2022-09-18T03:42:14.892Z,99455.69
2022-09-18T03:45:17.638Z,99460.25
2022-09-18T03:48:21.453Z,99463.13
2022-09-18T03:51:23.958Z,99465.09
2022-09-18T03:54:26.611Z,99471.22
2022-09-18T03:57:29.092Z,99469.66
2022-09-18T04:00:31.617Z,99459.72
2022-09-18T04:03:35.974Z,99456.78
2022-09-18T04:06:38.441Z,99472.84
2022-09-18T04:09:40.941Z,99468.06
2022-09-18T04:12:45.610Z,99470.50
2022-09-18T04:15:50.398Z,99471.38
2022-09-18T04:18:54.359Z,99471.56
2022-09-18T04:21:56.797Z,99478.44
2022-09-18T04:24:59.225Z,99486.03
2022-09-18T04:28:01.838Z,99475.03
2022-09-18T04:31:04.781Z,99491.91
2022-09-18T04:34:08.650Z,99502.63
2022-09-18T04:37:11.389Z,99494.28
2022-09-18T04:40:13.913Z,99504.16
2022-09-18T04:43:16.390Z,99505.22
2022-09-18T04:46:18.896Z,99509.75
2022-09-18T04:49:23.050Z,99513.34
2022-09-18T04:52:25.599Z,99509.09
2022-09-18T04:55:28.063Z,99513.34
2022-09-18T04:58:30.692Z,99510.59
2022-09-18T05:01:33.513Z,99516.09
2022-09-18T05:04:37.354Z,99514.19
2022-09-18T05:07:39.989Z,99519.16
2022-09-18T05:10:43.931Z,99529.78
2022-09-18T05:13:48.813Z,99527.16
2022-09-18T05:16:51.280Z,99535.06
2022-09-18T05:19:55.211Z,99530.88
2022-09-18T05:22:57.762Z,99524.44
2022-09-18T05:26:00.228Z,99531.28
2022-09-18T05:29:02.683Z,99525.47
2022-09-18T05:32:05.263Z,99532.44
2022-09-18T05:35:09.435Z,99530.00
2022-09-18T05:38:12.811Z,99541.56
2022-09-18T05:41:15.264Z,99540.63
2022-09-18T05:44:17.726Z,99540.53
2022-09-18T05:47:20.186Z,99546.56
2022-09-18T05:50:24.716Z,99548.06
2022-09-18T05:53:27.283Z,99543.66
2022-09-18T05:56:29.732Z,99552.25
2022-09-18T05:59:32.181Z,99557.44
2022-09-18T06:02:34.713Z,99544.13
2022-09-18T06:05:39.324Z,99547.72
2022-09-18T06:08:41.753Z,99548.56
2022-09-18T06:11:44.318Z,99546.16
2022-09-18T06:14:46.784Z,99546.72
2022-09-18T06:17:52.896Z,99551.63
2022-09-18T06:20:58.526Z,99547.84
2022-09-18T06:24:01.302Z,99558.53
2022-09-18T06:27:03.876Z,99555.16
2022-09-18T06:30:07.371Z,99557.34
2022-09-18T06:33:11.293Z,99551.84
2022-09-18T06:36:16.277Z,99545.81
2022-09-18T06:39:18.715Z,99550.34
2022-09-18T06:42:21.165Z,99550.56
2022-09-18T06:45:24.036Z,99554.78
2022-09-18T06:48:26.790Z,99549.44
2022-09-18T06:51:30.702Z,99555.22
2022-09-18T06:54:33.136Z,99549.56
2022-09-18T06:57:35.802Z,99554.25
2022-09-18T07:00:38.270Z,99560.78
2022-09-18T07:03:40.776Z,99557.34
2022-09-18T07:06:46.674Z,99562.94
2022-09-18T07:09:49.394Z,99569.06
2022-09-18T07:12:56.804Z,99567.09
2022-09-18T07:15:59.718Z,99568.47
2022-09-18T07:19:02.220Z,99572.19
2022-09-18T07:22:06.150Z,99568.50
2022-09-18T07:25:11.614Z,99567.78
2022-09-18T07:28:14.515Z,99579.38
2022-09-18T07:31:17.155Z,99566.38
2022-09-18T07:34:19.690Z,99571.97
2022-09-18T07:37:23.533Z,99573.94
2022-09-18T07:40:26.123Z,99563.84
2022-09-18T07:43:28.715Z,99570.47
2022-09-18T07:46:31.258Z,99575.44
2022-09-18T07:49:33.809Z,99578.31
2022-09-18T07:52:37.607Z,99581.75
2022-09-18T07:55:42.462Z,99574.31
2022-09-18T07:58:44.923Z,99575.84
2022-09-18T08:01:47.652Z,99574.75
2022-09-18T08:04:50.233Z,99577.94
2022-09-18T08:07:54.029Z,99573.34
2022-09-18T08:10:57.329Z,99577.59
2022-09-18T08:14:00.312Z,99574.41
2022-09-18T08:17:04.080Z,99576.50
2022-09-18T08:20:09.106Z,99568.28
2022-09-18T08:23:12.909Z,99572.06
2022-09-18T08:26:19.993Z,99564.69
2022-09-18T08:29:24.604Z,99577.34
2022-09-18T08:32:27.069Z,99572.84
2022-09-18T08:35:30.360Z,99570.19
2022-09-18T08:38:34.693Z,99564.91
2022-09-18T08:41:54.570Z,99577.41
2022-09-18T08:45:01.529Z,99574.22
2022-09-18T08:48:09.663Z,99576.78
2022-09-18T08:51:18.093Z,99576.69
2022-09-18T08:54:27.894Z,99575.69
2022-09-18T08:57:35.920Z,99575.19
2022-09-18T09:00:42.689Z,99577.63
2022-09-18T09:03:56.833Z,99575.69
2022-09-18T09:07:11.147Z,99569.75
2022-09-18T09:10:29.292Z,99560.97
2022-09-18T09:14:00.574Z,99574.03
2022-09-18T09:17:06.343Z,99570.59
2022-09-18T09:20:20.341Z,99565.44
2022-09-18T09:23:38.830Z,99567.84
2022-09-18T09:26:44.209Z,99565.31
2022-09-18T09:29:47.835Z,99564.47
2022-09-18T09:32:55.414Z,99563.63
2022-09-18T09:36:04.517Z,99555.91
2022-09-18T09:39:13.600Z,99557.78
2022-09-18T09:42:22.494Z,99559.66
2022-09-18T09:45:29.360Z,99554.34
2022-09-18T09:48:41.039Z,99562.09
2022-09-18T09:51:52.831Z,99568.84
2022-09-18T09:54:57.772Z,99573.19
2022-09-18T09:58:13.961Z,99571.66
2022-09-18T10:01:23.887Z,99566.63
2022-09-18T10:04:34.306Z,99582.84
2022-09-18T10:07:43.394Z,99574.75
2022-09-18T10:10:51.087Z,99573.09
2022-09-18T10:14:00.604Z,99562.84
2022-09-18T10:17:05.147Z,99564.59
2022-09-18T10:20:12.063Z,99564.44
2022-09-18T10:23:17.733Z,99574.13
2022-09-18T10:26:24.931Z,99573.31
2022-09-18T10:29:30.879Z,99575.34
2022-09-18T10:32:38.790Z,99575.50
2022-09-18T10:35:45.550Z,99574.97
2022-09-18T10:38:48.533Z,99576.78
2022-09-18T10:41:51.040Z,99572.06
2022-09-18T10:45:01.694Z,99575.41
2022-09-18T10:48:07.709Z,99581.53
2022-09-18T10:51:20.426Z,99574.22
2022-09-18T10:54:24.283Z,99583.13
2022-09-18T10:57:28.744Z,99572.34
2022-09-18T11:00:37.492Z,99577.50
2022-09-18T11:03:46.017Z,99581.94
2022-09-18T11:06:48.535Z,99573.59
2022-09-18T11:09:51.414Z,99567.56
2022-09-18T11:12:57.003Z,99566.28
2022-09-18T11:16:03.290Z,99562.50
2022-09-18T11:19:13.902Z,99554.97
2022-09-18T11:22:34.156Z,99567.25
2022-09-18T11:25:36.702Z,99559.78
2022-09-18T11:28:40.610Z,99558.25
2022-09-18T11:31:48.913Z,99565.19
2022-09-18T11:34:53.821Z,99567.28
2022-09-18T11:38:00.389Z,99564.47
2022-09-18T11:41:04.285Z,99551.97
2022-09-18T11:44:16.458Z,99553.38
2022-09-18T11:47:27.000Z,99550.06
2022-09-18T11:50:33.480Z,99545.28
2022-09-18T11:53:40.562Z,99546.84
2022-09-18T11:56:47.978Z,99543.97
2022-09-18T11:59:56.408Z,99544.19
2022-09-18T12:03:13.898Z,99543.00
2022-09-18T12:06:25.028Z,99544.06
2022-09-18T12:09:32.054Z,99541.03
2022-09-18T12:12:40.968Z,99543.78
2022-09-18T12:15:50.329Z,99525.88
2022-09-18T12:19:01.792Z,99529.69
2022-09-18T12:22:12.246Z,99532.78
2022-09-18T12:25:16.998Z,99529.75
2022-09-18T12:28:28.274Z,99526.69
2022-09-18T12:31:40.382Z,99516.53
2022-09-18T12:34:55.431Z,99508.19
2022-09-18T12:38:10.643Z,99516.22
2022-09-18T12:41:28.355Z,99503.63
2022-09-18T12:44:45.208Z,99505.09
2022-09-18T12:48:02.296Z,99500.81
2022-09-18T12:51:27.361Z,99494.75
2022-09-18T12:54:53.085Z,99500.69
2022-09-18T12:58:07.504Z,99506.25
2022-09-18T13:01:26.068Z,99515.06
2022-09-18T13:04:32.121Z,99509.16
2022-09-18T13:07:40.808Z,99507.28
2022-09-18T13:10:44.992Z,99512.19
2022-09-18T13:13:53.032Z,99507.00
2022-09-18T13:17:01.642Z,99502.81
2022-09-18T13:20:12.222Z,99495.13
2022-09-18T13:23:19.121Z,99502.44
2022-09-18T13:26:24.052Z,99487.94
2022-09-18T13:29:49.270Z,99484.81
2022-09-18T13:32:52.014Z,99491.81
2022-09-18T13:35:57.345Z,99496.91
2022-09-18T13:39:03.936Z,99501.13
2022-09-18T13:42:06.750Z,99514.75
2022-09-18T13:45:20.328Z,99523.84
2022-09-18T13:48:27.148Z,99522.63
2022-09-18T13:51:33.035Z,99529.09
2022-09-18T13:54:36.808Z,99519.56
2022-09-18T13:57:40.334Z,99535.91
2022-09-18T14:00:43.034Z,99528.13
2022-09-18T14:03:45.557Z,99527.91
2022-09-18T14:06:48.105Z,99537.25
2022-09-18T14:09:54.617Z,99530.38
2022-09-18T14:13:28.176Z,99534.88
2022-09-18T14:16:40.763Z,99514.72
2022-09-18T14:19:45.948Z,99528.13
2022-09-18T14:22:48.420Z,99520.09
2022-09-18T14:25:52.301Z,99519.16
2022-09-18T14:28:55.394Z,99506.69
2022-09-18T14:31:59.842Z,99515.88
2022-09-18T14:35:28.624Z,99503.31
2022-09-18T14:38:35.220Z,99509.63
2022-09-18T14:41:39.546Z,99495.72
2022-09-18T14:44:48.561Z,99501.59
2022-09-18T14:47:51.198Z,99503.31
2022-09-18T14:51:06.109Z,99497.06
2022-09-18T14:54:19.925Z,99494.91
2022-09-18T14:57:27.677Z,99489.59
2022-09-18T15:00:32.938Z,99492.97
2022-09-18T15:03:39.343Z,99488.19
2022-09-18T15:06:46.248Z,99480.13
2022-09-18T15:09:51.834Z,99487.13
2022-09-18T15:12:57.131Z,99482.03
2022-09-18T15:16:01.478Z,99474.72
2022-09-18T15:19:04.143Z,99483.34
2022-09-18T15:22:06.804Z,99490.09
2022-09-18T15:25:13.188Z,99476.75
2022-09-18T15:28:20.708Z,99476.31
2022-09-18T15:31:28.629Z,99484.28
2022-09-18T15:34:37.955Z,99478.31
2022-09-18T15:37:41.177Z,99478.38
2022-09-18T15:40:44.180Z,99478.72
2022-09-18T15:43:50.295Z,99473.38
2022-09-18T15:46:52.911Z,99470.22
2022-09-18T15:49:55.854Z,99466.09
2022-09-18T15:53:05.941Z,99466.78
2022-09-18T15:56:18.833Z,99461.41
2022-09-18T15:59:29.653Z,99469.66
2022-09-18T16:02:36.809Z,99468.56
2022-09-18T16:05:40.461Z,99479.06
2022-09-18T16:08:43.149Z,99477.22
2022-09-18T16:11:47.314Z,99479.84
2022-09-18T16:15:01.411Z,99488.81
2022-09-18T16:18:24.921Z,99492.63
2022-09-18T16:21:30.247Z,99494.19
2022-09-18T16:24:32.891Z,99490.19
2022-09-18T16:27:35.427Z,99496.66
2022-09-18T16:30:39.256Z,99500.88
2022-09-18T16:33:51.379Z,99498.22
2022-09-18T16:36:55.243Z,99496.09
2022-09-18T16:39:57.718Z,99484.03
2022-09-18T16:43:00.236Z,99483.16
2022-09-18T16:46:04.022Z,99481.59
2022-09-18T16:49:06.874Z,99472.84
2022-09-18T16:52:09.960Z,99469.88
2022-09-18T16:55:12.558Z,99466.91
2022-09-18T16:58:16.222Z,99479.72
2022-09-18T17:01:23.093Z,99476.16
2022-09-18T17:04:25.812Z,99473.44
2022-09-18T17:07:29.035Z,99480.47
2022-09-18T17:10:31.590Z,99475.28
2022-09-18T17:13:34.058Z,99478.53
2022-09-18T17:16:44.653Z,99484.31
2022-09-18T17:19:47.677Z,99485.97
2022-09-18T17:22:50.972Z,99485.97
2022-09-18T17:26:02.803Z,99490.53
2022-09-18T17:29:05.494Z,99489.88
2022-09-18T17:32:09.496Z,99482.34
2022-09-18T17:35:13.357Z,99487.19
2022-09-18T17:38:15.963Z,99492.84
2022-09-18T17:41:20.257Z,99494.19
2022-09-18T17:44:24.130Z,99488.91
2022-09-18T17:47:27.916Z,99495.63
2022-09-18T17:50:30.360Z,99495.94
2022-09-18T17:53:33.740Z,99499.22
2022-09-18T17:56:36.254Z,99499.50
2022-09-18T17:59:39.438Z,99497.91
2022-09-18T18:02:43.978Z,99495.44
2022-09-18T18:05:51.704Z,99496.00
2022-09-18T18:08:54.178Z,99502.97
2022-09-18T18:11:56.714Z,99510.69
2022-09-18T18:14:59.311Z,99501.63
2022-09-18T18:18:03.149Z,99499.94
2022-09-18T18:21:06.868Z,99510.88
2022-09-18T18:24:12.198Z,99510.56
2022-09-18T18:27:14.652Z,99521.59
2022-09-18T18:30:18.744Z,99515.47
2022-09-18T18:33:22.594Z,99519.69
2022-09-18T18:36:27.188Z,99520.84
2022-09-18T18:39:29.621Z,99522.72
2022-09-18T18:42:32.637Z,99521.97
2022-09-18T18:45:37.460Z,99524.88
2022-09-18T18:48:42.314Z,99523.09
2022-09-18T18:51:47.725Z,99524.22
2022-09-18T18:54:50.626Z,99524.50
2022-09-18T18:57:54.114Z,99535.13
2022-09-18T19:00:56.659Z,99536.34
2022-09-18T19:04:04.926Z,99531.66
2022-09-18T19:07:08.142Z,99534.97
2022-09-18T19:10:11.113Z,99525.22
2022-09-18T19:13:13.893Z,99529.03
2022-09-18T19:16:16.561Z,99533.16
2022-09-18T19:19:23.409Z,99535.03
2022-09-18T19:22:25.946Z,99532.94
2022-09-18T19:25:30.115Z,99530.50
2022-09-18T19:28:32.579Z,99529.56
2022-09-18T19:31:36.677Z,99536.97
2022-09-18T19:34:40.507Z,99538.81
2022-09-18T19:37:43.641Z,99535.53
2022-09-18T19:40:48.408Z,99540.09
2022-09-18T19:43:51.467Z,99534.59
2022-09-18T19:46:56.619Z,99542.38
2022-09-18T19:50:03.214Z,99539.75
2022-09-18T19:53:05.946Z,99546.31
2022-09-18T19:56:22.679Z,99548.75
2022-09-18T19:59:32.773Z,99549.44
2022-09-18T20:02:35.224Z,99547.06
2022-09-18T20:05:40.174Z,99552.31
2022-09-18T20:08:42.654Z,99556.50
2022-09-18T20:11:48.129Z,99550.41
2022-09-18T20:14:51.273Z,99549.66
2022-09-18T20:17:55.672Z,99555.75
2022-09-18T20:21:04.892Z,99557.28
2022-09-18T20:24:07.568Z,99555.66
2022-09-18T20:27:10.679Z,99553.28
2022-09-18T20:30:13.444Z,99555.25
2022-09-18T20:33:16.629Z,99555.16
2022-09-18T20:36:20.529Z,99555.25
2022-09-18T20:39:23.351Z,99558.22
2022-09-18T20:42:25.976Z,99552.97
2022-09-18T20:45:28.514Z,99546.94
2022-09-18T20:48:34.487Z,99548.47
2022-09-18T20:51:38.292Z,99537.19
2022-09-18T20:54:41.580Z,99545.25
2022-09-18T20:57:46.320Z,99546.97
2022-09-18T21:00:48.827Z,99552.28
2022-09-18T21:03:56.491Z,99556.44
2022-09-18T21:07:01.667Z,99545.78
2022-09-18T21:10:04.792Z,99549.50
2022-09-18T21:13:08.118Z,99552.47
2022-09-18T21:16:11.024Z,99551.78
2022-09-18T21:19:15.727Z,99554.75
2022-09-18T21:22:19.508Z,99557.53
2022-09-18T21:25:23.342Z,99557.22
2022-09-18T21:28:25.876Z,99557.56
2022-09-18T21:31:29.297Z,99558.41
2022-09-18T21:34:34.184Z,99564.50
2022-09-18T21:37:37.994Z,99553.47
2022-09-18T21:40:40.417Z,99550.44
2022-09-18T21:43:46.511Z,99557.81
2022-09-18T21:46:49.605Z,99549.31
2022-09-18T21:49:52.188Z,99558.13
2022-09-18T21:52:56.018Z,99553.31
2022-09-18T21:56:01.833Z,99556.69
2022-09-18T21:59:05.337Z,99553.72
2022-09-18T22:02:08.678Z,99551.25
2022-09-18T22:05:12.168Z,99555.91
2022-09-18T22:08:16.432Z,99554.81
2022-09-18T22:11:20.318Z,99558.13
2022-09-18T22:14:28.545Z,99552.69
2022-09-18T22:17:31.032Z,99556.44
2022-09-18T22:20:36.133Z,99552.56
2022-09-18T22:23:40.430Z,99561.38
2022-09-18T22:26:45.047Z,99562.28
2022-09-18T22:29:47.489Z,99564.91
2022-09-18T22:32:49.941Z,99562.13
2022-09-18T22:35:52.387Z,99561.88
2022-09-18T22:38:56.623Z,99562.28
2022-09-18T22:41:59.693Z,99568.47
2022-09-18T22:45:02.149Z,99566.19
2022-09-18T22:48:04.683Z,99564.66
2022-09-18T22:51:09.396Z,99572.53
2022-09-18T22:54:15.091Z,99571.25
2022-09-18T22:57:17.558Z,99578.50
2022-09-18T23:00:20.089Z,99584.69
2022-09-18T23:03:22.642Z,99589.00
2022-09-18T23:06:28.557Z,99580.94
2022-09-18T23:09:32.738Z,99587.03
2022-09-18T23:12:35.267Z,99588.31
2022-09-18T23:15:37.897Z,99592.63
2022-09-18T23:18:41.804Z,99591.03
2022-09-18T23:21:44.362Z,99585.84
2022-09-18T23:24:49.152Z,99592.91
2022-09-18T23:27:53.617Z,99586.84
2022-09-18T23:30:56.739Z,99589.47
2022-09-18T23:34:01.076Z,99588.53
2022-09-18T23:37:03.568Z,99594.69
2022-09-18T23:40:09.265Z,99587.28
2022-09-18T23:43:11.764Z,99590.81
2022-09-18T23:46:14.896Z,99594.28
2022-09-18T23:49:23.083Z,99589.38
2022-09-18T23:52:25.547Z,99594.56
2022-09-18T23:55:30.978Z,99600.50
2022-09-18T23:58:34.262Z,99595.41
